createdAt,value
2017-11-10T00:01:48.427Z,15.90
2017-11-10T00:04:15.460Z,16.00
2017-11-10T00:06:41.751Z,17.00
2017-11-10T00:09:08.048Z,17.62
2017-11-10T00:11:35.106Z,16.25
2017-11-10T00:14:02.143Z,15.65
2017-11-10T00:16:28.431Z,16.85
2017-11-10T00:18:54.728Z,17.17
2017-11-10T00:21:20.990Z,18.00
2017-11-10T00:23:47.278Z,17.35
2017-11-10T00:26:13.565Z,17.98
2017-11-10T00:28:40.611Z,19.98
2017-11-10T00:31:06.875Z,19.42
2017-11-10T00:33:33.136Z,17.37
2017-11-10T00:35:59.432Z,19.30
2017-11-10T00:38:25.719Z,17.20
2017-11-10T00:40:52.015Z,21.00
2017-11-10T00:43:18.295Z,17.27
2017-11-10T00:45:44.615Z,17.08
2017-11-10T00:48:10.924Z,17.40
2017-11-10T00:50:37.220Z,17.00
2017-11-10T00:53:04.239Z,16.95
2017-11-10T00:55:30.587Z,18.60
2017-11-10T00:57:56.844Z,17.90
2017-11-10T01:00:23.136Z,19.37
2017-11-10T01:02:49.439Z,16.45
2017-11-10T01:05:15.704Z,15.93
2017-11-10T01:07:41.979Z,17.85
2017-11-10T01:10:08.239Z,17.00
2017-11-10T01:12:34.547Z,16.12
2017-11-10T01:15:00.796Z,17.33
2017-11-10T01:17:27.079Z,17.58
2017-11-10T01:19:53.357Z,15.20
2017-11-10T01:22:20.359Z,17.70
2017-11-10T01:24:46.636Z,17.50
2017-11-10T01:27:13.664Z,15.63
2017-11-10T01:29:39.963Z,16.35
2017-11-10T01:32:06.271Z,15.73
2017-11-10T01:34:33.303Z,18.20
2017-11-10T01:37:00.651Z,17.02
2017-11-10T01:39:26.919Z,17.45
2017-11-10T01:41:53.264Z,17.98
2017-11-10T01:44:20.599Z,17.20
2017-11-10T01:46:46.880Z,15.48
2017-11-10T01:49:14.931Z,16.85
2017-11-10T01:51:42.200Z,17.12
2017-11-10T01:54:08.512Z,17.27
2017-11-10T01:56:34.883Z,17.95
2017-11-10T01:59:01.188Z,17.00
2017-11-10T02:01:28.232Z,15.80
2017-11-10T02:03:55.320Z,17.40
2017-11-10T02:06:22.366Z,16.35
2017-11-10T02:08:48.647Z,16.25
2017-11-10T02:11:14.963Z,17.75
2017-11-10T02:13:41.243Z,17.02
2017-11-10T02:16:07.536Z,16.23
2017-11-10T02:18:34.604Z,15.82
2017-11-10T02:21:00.907Z,16.90
2017-11-10T02:23:27.264Z,16.12
2017-11-10T02:25:53.583Z,17.40
2017-11-10T02:28:19.895Z,16.37
2017-11-10T02:30:46.248Z,16.42
2017-11-10T02:33:12.583Z,17.90
2017-11-10T02:35:39.612Z,17.00
2017-11-10T02:38:05.899Z,15.88
2017-11-10T02:40:32.248Z,15.35
2017-11-10T02:42:58.596Z,15.52
2017-11-10T02:45:24.912Z,18.27
2017-11-10T02:47:51.223Z,17.12
2017-11-10T02:50:19.011Z,16.02
2017-11-10T02:52:47.044Z,16.55
2017-11-10T02:55:13.360Z,15.93
2017-11-10T02:57:39.661Z,17.70
2017-11-10T03:00:05.954Z,18.02
2017-11-10T03:02:32.244Z,16.33
2017-11-10T03:04:58.524Z,16.83
2017-11-10T03:07:24.810Z,18.58
2017-11-10T03:09:52.149Z,16.90
2017-11-10T03:12:18.447Z,20.27
2017-11-10T03:14:46.611Z,18.98
2017-11-10T03:17:12.904Z,17.80
2017-11-10T03:19:40.303Z,18.10
2017-11-10T03:22:06.591Z,19.20
2017-11-10T03:24:32.923Z,18.10
2017-11-10T03:27:00.264Z,17.92
2017-11-10T03:29:26.631Z,19.70
2017-11-10T03:31:52.968Z,18.87
2017-11-10T03:34:19.247Z,17.40
2017-11-10T03:36:45.539Z,17.52
2017-11-10T03:39:11.901Z,17.40
2017-11-10T03:41:38.936Z,19.67
2017-11-10T03:44:05.227Z,17.10
2017-11-10T03:46:31.567Z,19.65
2017-11-10T03:48:58.595Z,17.30
2017-11-10T03:51:24.919Z,19.50
2017-11-10T03:53:51.247Z,17.70
2017-11-10T03:56:17.538Z,18.55
2017-11-10T03:58:44.578Z,18.87
2017-11-10T04:01:11.671Z,17.80
2017-11-10T04:03:37.955Z,20.02
2017-11-10T04:06:04.238Z,17.65
2017-11-10T04:08:30.564Z,19.77
2017-11-10T04:10:56.878Z,20.62
2017-11-10T04:13:23.216Z,20.92
2017-11-10T04:15:49.511Z,20.12
2017-11-10T04:18:16.538Z,19.40
2017-11-10T04:20:42.818Z,18.15
2017-11-10T04:23:09.151Z,19.60
2017-11-10T04:25:36.175Z,18.75
2017-11-10T04:28:02.499Z,18.00
2017-11-10T04:30:28.811Z,19.60
2017-11-10T04:32:55.107Z,17.10
2017-11-10T04:35:21.423Z,18.25
2017-11-10T04:37:47.740Z,17.50
2017-11-10T04:40:14.015Z,18.60
2017-11-10T04:42:40.303Z,17.83
2017-11-10T04:45:06.620Z,18.20
2017-11-10T04:47:32.931Z,18.30
2017-11-10T04:49:59.231Z,18.08
2017-11-10T04:52:25.580Z,17.25
2017-11-10T04:54:51.888Z,19.10
2017-11-10T04:57:18.176Z,18.70
2017-11-10T04:59:44.500Z,16.00
2017-11-10T05:02:11.548Z,17.87
2017-11-10T05:04:37.875Z,16.75
2017-11-10T05:07:06.031Z,16.90
2017-11-10T05:09:32.337Z,16.75
2017-11-10T05:11:59.384Z,18.40
2017-11-10T05:14:25.719Z,16.37
2017-11-10T05:16:52.030Z,18.35
2017-11-10T05:19:18.312Z,17.67
2017-11-10T05:21:44.642Z,19.40
2017-11-10T05:24:10.932Z,16.85
2017-11-10T05:26:37.229Z,17.45
2017-11-10T05:29:03.581Z,20.65
2017-11-10T05:31:30.643Z,19.10
2017-11-10T05:33:57.715Z,19.40
2017-11-10T05:36:24.022Z,18.00
2017-11-10T05:38:50.284Z,18.75
2017-11-10T05:41:17.340Z,19.12
2017-11-10T05:43:43.643Z,20.52
2017-11-10T05:46:09.972Z,19.55
2017-11-10T05:48:36.267Z,18.25
2017-11-10T05:51:02.608Z,20.75
2017-11-10T05:53:29.675Z,19.33
2017-11-10T05:55:56.715Z,21.83
2017-11-10T05:58:23.786Z,19.00
2017-11-10T06:00:50.848Z,18.80
2017-11-10T06:03:17.168Z,19.83
2017-11-10T06:05:44.239Z,18.85
2017-11-10T06:08:10.516Z,18.48
2017-11-10T06:10:36.832Z,19.30
2017-11-10T06:13:03.154Z,19.45
2017-11-10T06:15:29.472Z,19.58
2017-11-10T06:17:55.756Z,19.90
2017-11-10T06:20:22.091Z,20.45
2017-11-10T06:22:49.124Z,21.73
2017-11-10T06:25:15.399Z,19.70
2017-11-10T06:27:41.760Z,18.52
2017-11-10T06:30:08.067Z,20.55
2017-11-10T06:32:34.379Z,18.25
2017-11-10T06:35:01.717Z,20.30
2017-11-10T06:37:28.020Z,20.35
2017-11-10T06:39:54.331Z,20.90
2017-11-10T06:42:20.659Z,17.75
2017-11-10T06:44:46.995Z,19.10
2017-11-10T06:47:14.020Z,19.27
2017-11-10T06:49:40.335Z,18.77
2017-11-10T06:52:06.635Z,19.58
2017-11-10T06:54:32.943Z,18.17
2017-11-10T06:56:59.263Z,17.23
2017-11-10T06:59:25.545Z,16.95
2017-11-10T07:01:51.843Z,16.35
2017-11-10T07:04:18.164Z,16.42
2017-11-10T07:06:44.452Z,16.45
2017-11-10T07:09:10.723Z,14.63
2017-11-10T07:11:37.771Z,14.63
2017-11-10T07:14:04.044Z,14.65
2017-11-10T07:16:30.348Z,14.18
2017-11-10T07:18:56.665Z,13.90
2017-11-10T07:21:22.935Z,12.60
2017-11-10T07:23:49.208Z,12.10
2017-11-10T07:26:15.499Z,10.88
2017-11-10T07:28:41.780Z,10.63
2017-11-10T07:31:08.779Z,12.43
2017-11-10T07:33:35.091Z,11.77
2017-11-10T07:36:01.364Z,10.50
2017-11-10T07:38:27.659Z,12.45
2017-11-10T07:40:53.963Z,11.05
2017-11-10T07:43:20.223Z,11.75
2017-11-10T07:45:47.964Z,10.75
2017-11-10T07:48:14.283Z,12.60
2017-11-10T07:50:40.539Z,12.00
2017-11-10T07:53:06.801Z,12.60
2017-11-10T07:55:33.095Z,14.60
2017-11-10T07:57:59.359Z,12.75
2017-11-10T08:00:25.647Z,12.05
2017-11-10T08:02:52.720Z,12.45
2017-11-10T08:05:19.719Z,11.43
2017-11-10T08:07:46.007Z,11.52
2017-11-10T08:10:13.056Z,12.25
2017-11-10T08:12:39.348Z,10.57
2017-11-10T08:15:05.636Z,12.10
2017-11-10T08:17:32.688Z,12.10
2017-11-10T08:19:58.983Z,10.85
2017-11-10T08:22:25.236Z,12.13
2017-11-10T08:24:51.547Z,12.32
2017-11-10T08:27:18.535Z,12.10
2017-11-10T08:29:44.863Z,12.30
2017-11-10T08:32:11.200Z,10.48
2017-11-10T08:34:37.519Z,10.98
2017-11-10T08:37:03.853Z,11.77
2017-11-10T08:39:30.916Z,10.85
2017-11-10T08:41:57.188Z,12.30
2017-11-10T08:44:24.253Z,12.35
2017-11-10T08:46:50.573Z,12.77
2017-11-10T08:49:16.875Z,12.25
2017-11-10T08:51:43.152Z,11.95
2017-11-10T08:54:09.471Z,11.75
2017-11-10T08:56:35.732Z,11.52
2017-11-10T08:59:02.008Z,11.00
2017-11-10T09:01:28.307Z,12.70
2017-11-10T09:03:54.583Z,13.93
2017-11-10T09:06:20.895Z,11.95
2017-11-10T09:08:47.235Z,14.02
2017-11-10T09:11:13.508Z,13.02
2017-11-10T09:13:39.788Z,13.25
2017-11-10T09:16:06.064Z,12.80
2017-11-10T09:18:32.399Z,12.55
2017-11-10T09:20:58.707Z,17.05
2017-11-10T09:23:25.039Z,15.20
2017-11-10T09:25:51.353Z,15.55
2017-11-10T09:28:23.691Z,16.50
2017-11-10T09:30:52.984Z,14.27
2017-11-10T09:33:23.428Z,17.00
2017-11-10T09:35:56.052Z,16.10
2017-11-10T09:38:29.235Z,15.40
2017-11-10T09:40:59.324Z,15.50
2017-11-10T09:43:26.420Z,15.32
2017-11-10T09:48:59.684Z,15.25
2017-11-10T09:51:32.939Z,15.23
2017-11-10T09:54:09.199Z,13.23
2017-11-10T09:56:44.527Z,13.82
2017-11-10T10:02:27.056Z,11.98
2017-11-10T10:04:59.600Z,13.23
2017-11-10T10:07:26.848Z,13.98
2017-11-10T10:13:05.567Z,12.63
2017-11-10T10:18:49.387Z,11.38
2017-11-10T10:21:30.607Z,11.55
2017-11-10T10:23:56.928Z,14.10
2017-11-10T10:26:23.237Z,11.20
2017-11-10T10:28:49.504Z,12.25
2017-11-10T10:31:15.799Z,11.20
2017-11-10T10:33:42.097Z,12.00
2017-11-10T10:36:08.443Z,12.90
2017-11-10T10:38:34.795Z,12.02
2017-11-10T10:41:01.826Z,10.63
2017-11-10T10:43:28.889Z,12.45
2017-11-10T10:45:55.980Z,13.60
2017-11-10T10:48:23.009Z,11.40
2017-11-10T10:50:50.035Z,12.93
2017-11-10T10:53:16.345Z,12.55
2017-11-10T10:55:42.615Z,12.23
2017-11-10T10:58:08.920Z,13.00
2017-11-10T11:00:35.169Z,12.85
2017-11-10T11:03:01.472Z,13.30
2017-11-10T11:05:28.540Z,12.82
2017-11-10T11:07:54.804Z,11.70
2017-11-10T11:10:21.116Z,11.60
2017-11-10T11:12:47.432Z,11.48
2017-11-10T11:15:13.732Z,10.55
2017-11-10T11:17:39.995Z,10.38
2017-11-10T11:20:06.287Z,11.57
2017-11-10T11:22:32.555Z,11.15
2017-11-10T11:24:58.900Z,10.45
2017-11-10T11:27:25.202Z,8.73
2017-11-10T11:29:51.478Z,8.10
2017-11-10T11:32:17.827Z,7.97
2017-11-10T11:34:44.105Z,7.45
2017-11-10T11:37:10.401Z,6.93
2017-11-10T11:39:36.709Z,7.90
2017-11-10T11:42:03.024Z,8.40
2017-11-10T11:44:29.329Z,6.93
2017-11-10T11:46:55.621Z,7.68
2017-11-10T11:49:22.692Z,6.82
2017-11-10T11:51:49.004Z,7.22
2017-11-10T11:54:15.319Z,8.98
2017-11-10T11:56:41.638Z,7.32
2017-11-10T11:59:07.949Z,6.87
2017-11-10T12:01:34.287Z,6.43
2017-11-10T12:04:00.588Z,5.87
2017-11-10T12:06:26.875Z,6.35
2017-11-10T12:08:53.183Z,6.03
2017-11-10T12:11:19.522Z,5.68
2017-11-10T12:13:45.827Z,5.82
2017-11-10T12:16:12.867Z,5.65
2017-11-10T12:18:39.179Z,6.20
2017-11-10T12:21:05.507Z,5.95
2017-11-10T12:23:32.943Z,5.90
2017-11-10T12:25:59.996Z,6.12
2017-11-10T12:28:27.046Z,4.62
2017-11-10T12:30:53.390Z,6.70
2017-11-10T12:33:20.460Z,5.05
2017-11-10T12:35:46.773Z,4.85
2017-11-10T12:38:13.072Z,5.43
2017-11-10T12:40:39.403Z,6.00
2017-11-10T12:43:05.707Z,5.07
2017-11-10T12:45:32.036Z,4.60
2017-11-10T12:47:58.325Z,5.72
2017-11-10T12:50:24.655Z,5.15
2017-11-10T12:52:50.972Z,4.53
2017-11-10T12:55:17.240Z,5.47
2017-11-10T12:57:43.575Z,4.72
2017-11-10T13:00:09.876Z,5.35
2017-11-10T13:02:36.232Z,5.03
2017-11-10T13:05:03.275Z,5.15
2017-11-10T13:07:29.588Z,4.25
2017-11-10T13:09:55.909Z,4.18
2017-11-10T13:12:22.216Z,6.05
2017-11-10T13:14:48.521Z,5.22
2017-11-10T13:17:14.800Z,5.25
2017-11-10T13:19:41.163Z,6.12
2017-11-10T13:22:07.444Z,4.72
2017-11-10T13:24:33.731Z,5.55
2017-11-10T13:27:00.028Z,6.65
2017-11-10T13:29:26.315Z,5.35
2017-11-10T13:31:52.595Z,5.93
2017-11-10T13:34:18.891Z,6.22
2017-11-10T13:36:45.150Z,5.60
2017-11-10T13:39:11.444Z,6.15
2017-11-10T13:41:37.733Z,6.82
2017-11-10T13:44:03.996Z,7.47
2017-11-10T13:46:31.016Z,6.53
2017-11-10T13:48:57.327Z,7.03
2017-11-10T13:51:23.629Z,7.70
2017-11-10T13:53:50.660Z,7.32
2017-11-10T13:56:16.952Z,6.93
2017-11-10T13:58:43.243Z,6.03
2017-11-10T14:01:09.504Z,7.00
2017-11-10T14:03:36.561Z,6.10
2017-11-10T14:06:02.867Z,7.35
2017-11-10T14:08:29.128Z,6.80
2017-11-10T14:10:55.440Z,6.62
2017-11-10T14:13:21.712Z,7.10
2017-11-10T14:15:47.984Z,7.57
2017-11-10T14:18:14.347Z,7.45
2017-11-10T14:20:40.673Z,6.43
2017-11-10T14:23:07.740Z,8.30
2017-11-10T14:25:34.056Z,8.65
2017-11-10T14:28:01.127Z,6.43
2017-11-10T14:30:28.131Z,7.60
2017-11-10T14:32:54.471Z,6.80
2017-11-10T14:35:20.757Z,7.28
2017-11-10T14:37:47.063Z,7.25
2017-11-10T14:40:13.372Z,5.35
2017-11-10T14:42:40.748Z,6.25
2017-11-10T14:45:07.134Z,7.10
2017-11-10T14:47:34.204Z,5.65
2017-11-10T14:50:00.503Z,5.90
2017-11-10T14:52:26.919Z,6.03
2017-11-10T14:54:53.260Z,6.32
2017-11-10T14:57:20.316Z,6.18
2017-11-10T14:59:47.440Z,8.10
2017-11-10T15:02:13.741Z,4.93
2017-11-10T15:04:40.157Z,4.75
2017-11-10T15:07:06.439Z,5.75
2017-11-10T15:09:32.940Z,5.28
2017-11-10T15:11:59.264Z,4.80
2017-11-10T15:14:25.856Z,4.22
2017-11-10T15:16:53.905Z,3.30
2017-11-10T15:19:20.862Z,2.95
2017-11-10T15:21:48.521Z,2.50
2017-11-10T15:24:15.205Z,2.40
2017-11-10T15:26:42.041Z,1.95
2017-11-10T15:29:08.468Z,2.70
2017-11-10T15:31:35.117Z,2.50
2017-11-10T15:34:01.568Z,2.95
2017-11-10T15:36:28.062Z,2.65
2017-11-10T15:38:55.406Z,2.95
2017-11-10T15:41:21.763Z,2.08
2017-11-10T15:43:48.131Z,2.10
2017-11-10T15:46:15.485Z,1.60
2017-11-10T15:48:42.403Z,1.40
2017-11-10T15:51:08.728Z,1.60
2017-11-10T15:53:35.860Z,1.95
2017-11-10T15:56:02.460Z,1.50
2017-11-10T15:58:29.187Z,1.45
2017-11-10T16:00:55.683Z,2.00
2017-11-10T16:03:22.032Z,1.77
2017-11-10T16:05:48.630Z,1.67
2017-11-10T16:08:15.175Z,1.77
2017-11-10T16:10:41.842Z,11.73
2017-11-10T16:13:08.697Z,3.30
2017-11-10T16:15:35.192Z,1.80
2017-11-10T16:18:01.779Z,2.20
2017-11-10T16:20:29.668Z,1.60
2017-11-10T16:22:57.366Z,1.83
2017-11-10T16:25:25.529Z,2.05
2017-11-10T16:27:54.012Z,1.60
2017-11-10T16:30:22.002Z,1.70
2017-11-10T16:32:49.322Z,1.98
2017-11-10T16:35:16.411Z,3.03
2017-11-10T16:37:42.940Z,9.85
2017-11-10T16:40:09.545Z,2.90
2017-11-10T16:42:36.684Z,2.55
2017-11-10T16:45:04.051Z,2.92
2017-11-10T16:47:32.623Z,3.28
2017-11-10T16:49:59.912Z,3.20
2017-11-10T16:52:28.761Z,3.08
2017-11-10T16:54:57.625Z,2.15
2017-11-10T16:57:26.435Z,1.67
2017-11-10T16:59:55.530Z,2.10
2017-11-10T17:02:25.075Z,2.05
2017-11-10T17:04:53.705Z,1.75
2017-11-10T17:07:22.576Z,2.60
2017-11-10T17:09:51.851Z,2.30
2017-11-10T17:12:20.446Z,2.47
2017-11-10T17:14:49.468Z,2.10
2017-11-10T17:17:18.150Z,2.65
2017-11-10T17:19:47.201Z,2.25
2017-11-10T17:22:16.100Z,2.40
2017-11-10T17:24:45.114Z,2.58
2017-11-10T17:27:15.241Z,2.95
2017-11-10T17:29:44.237Z,2.97
2017-11-10T17:32:13.361Z,2.85
2017-11-10T17:34:42.416Z,2.70
2017-11-10T17:37:11.024Z,2.50
2017-11-10T17:39:40.168Z,2.50
2017-11-10T17:42:09.678Z,2.95
2017-11-10T17:44:38.901Z,3.05
2017-11-10T17:47:07.803Z,3.08
2017-11-10T17:49:37.213Z,3.33
2017-11-10T17:52:05.760Z,3.50
2017-11-10T17:54:36.638Z,3.50
2017-11-10T17:57:05.469Z,4.22
2017-11-10T17:59:35.335Z,4.45
2017-11-10T18:02:04.321Z,3.45
2017-11-10T18:04:34.315Z,3.33
2017-11-10T18:07:03.029Z,3.05
2017-11-10T18:09:32.394Z,2.80
2017-11-10T18:12:01.240Z,3.15
2017-11-10T18:14:30.440Z,3.45
2017-11-10T18:17:00.004Z,3.15
2017-11-10T18:19:29.688Z,3.83
2017-11-10T18:21:59.281Z,3.25
2017-11-10T18:24:28.373Z,3.58
2017-11-10T18:26:57.163Z,4.20
2017-11-10T18:29:26.062Z,3.55
2017-11-10T18:31:54.738Z,4.05
2017-11-10T18:34:23.581Z,32.90
2017-11-10T18:36:52.626Z,7.53
2017-11-10T18:39:21.898Z,4.20
2017-11-10T18:41:52.347Z,4.50
2017-11-10T18:44:21.345Z,5.32
2017-11-10T18:46:51.522Z,4.85
2017-11-10T18:49:26.234Z,4.45
2017-11-10T18:51:55.493Z,5.10
2017-11-10T18:54:24.309Z,4.50
2017-11-10T18:56:53.083Z,4.40
2017-11-10T18:59:23.641Z,3.97
2017-11-10T19:01:52.839Z,4.10
2017-11-10T19:04:21.812Z,4.30
2017-11-10T19:06:51.407Z,4.07
2017-11-10T19:09:20.414Z,4.53
2017-11-10T19:11:49.336Z,4.20
2017-11-10T19:14:18.915Z,3.55
2017-11-10T19:16:47.703Z,3.75
2017-11-10T19:19:16.427Z,4.37
2017-11-10T19:21:45.558Z,4.20
2017-11-10T19:24:14.343Z,3.85
2017-11-10T19:26:43.758Z,3.20
2017-11-10T19:29:12.325Z,3.67
2017-11-10T19:31:41.113Z,3.53
2017-11-10T19:34:10.835Z,2.53
2017-11-10T19:36:39.445Z,17.40
2017-11-10T19:39:09.303Z,7.68
2017-11-10T19:41:38.411Z,3.95
2017-11-10T19:44:07.498Z,2.90
2017-11-10T19:46:36.070Z,2.53
2017-11-10T19:49:04.883Z,3.30
2017-11-10T19:51:33.614Z,3.30
2017-11-10T19:54:02.609Z,2.85
2017-11-10T19:56:31.817Z,3.47
2017-11-10T19:59:00.942Z,3.37
2017-11-10T20:01:30.483Z,3.78
2017-11-10T20:03:59.465Z,3.78
2017-11-10T20:06:29.038Z,4.12
2017-11-10T20:08:57.999Z,2.75
2017-11-10T20:11:27.889Z,3.62
2017-11-10T20:13:56.708Z,2.87
2017-11-10T20:16:26.276Z,3.53
2017-11-10T20:18:54.966Z,2.92
2017-11-10T20:21:23.774Z,3.58
2017-11-10T20:23:52.265Z,2.72
2017-11-10T20:26:21.812Z,2.12
2017-11-10T20:28:51.033Z,3.87
2017-11-10T20:31:20.245Z,2.70
2017-11-10T20:33:49.361Z,2.40
2017-11-10T20:36:18.380Z,3.03
2017-11-10T20:38:47.674Z,2.95
2017-11-10T20:41:17.301Z,13.15
2017-11-10T20:43:46.789Z,3.92
2017-11-10T20:46:15.517Z,2.78
2017-11-10T20:48:45.956Z,3.00
2017-11-10T20:51:15.113Z,2.20
2017-11-10T20:53:44.024Z,1.83
2017-11-10T20:56:13.370Z,2.85
2017-11-10T20:58:43.268Z,3.17
2017-11-10T21:01:11.964Z,2.87
2017-11-10T21:03:40.969Z,2.25
2017-11-10T21:06:10.491Z,2.58
2017-11-10T21:08:39.631Z,2.92
2017-11-10T21:11:08.301Z,3.95
2017-11-10T21:13:37.396Z,3.12
2017-11-10T21:16:07.622Z,2.78
2017-11-10T21:18:36.737Z,3.60
2017-11-10T21:21:05.690Z,3.22
2017-11-10T21:23:35.351Z,2.55
2017-11-10T21:26:03.953Z,3.05
2017-11-10T21:28:32.459Z,2.80
2017-11-10T21:31:01.935Z,4.65
2017-11-10T21:33:32.099Z,4.80
2017-11-10T21:36:00.998Z,3.83
2017-11-10T21:38:29.865Z,2.92
2017-11-10T21:40:58.859Z,2.60
2017-11-10T21:43:28.427Z,3.80
2017-11-10T21:45:56.916Z,2.20
2017-11-10T21:48:25.664Z,3.40
2017-11-10T21:50:54.413Z,5.22
2017-11-10T21:53:23.427Z,37.08
2017-11-10T21:55:52.216Z,3.65
2017-11-10T21:58:21.287Z,2.12
2017-11-10T22:00:50.575Z,4.00
2017-11-10T22:03:19.239Z,3.58
2017-11-10T22:05:48.226Z,3.05
2017-11-10T22:08:16.872Z,2.97
2017-11-10T22:10:45.718Z,3.08
2017-11-10T22:13:15.765Z,3.62
2017-11-10T22:15:44.811Z,3.15
2017-11-10T22:18:13.713Z,2.45
2017-11-10T22:20:42.512Z,4.03
2017-11-10T22:23:11.714Z,3.10
2017-11-10T22:25:40.835Z,3.05
2017-11-10T22:28:10.067Z,2.97
2017-11-10T22:30:39.103Z,3.00
2017-11-10T22:33:07.800Z,2.85
2017-11-10T22:35:36.383Z,2.67
2017-11-10T22:38:05.299Z,3.65
2017-11-10T22:40:33.978Z,2.97
2017-11-10T22:43:03.409Z,3.90
2017-11-10T22:45:32.028Z,3.40
2017-11-10T22:48:01.156Z,2.90
2017-11-10T22:50:29.847Z,3.45
2017-11-10T22:52:59.066Z,3.08
2017-11-10T22:55:27.649Z,3.50
2017-11-10T22:57:56.437Z,2.65
2017-11-10T23:00:25.363Z,3.15
2017-11-10T23:02:54.387Z,3.78
2017-11-10T23:05:25.213Z,3.33
2017-11-10T23:07:54.227Z,3.22
2017-11-10T23:10:22.755Z,3.05
2017-11-10T23:12:52.644Z,3.30
2017-11-10T23:15:21.325Z,3.40
2017-11-10T23:17:48.767Z,3.37
2017-11-10T23:20:15.828Z,3.35
2017-11-10T23:22:42.341Z,3.37
2017-11-10T23:25:08.863Z,3.75
2017-11-10T23:27:35.224Z,3.33
2017-11-10T23:30:01.511Z,3.55
2017-11-10T23:32:27.771Z,3.17
2017-11-10T23:34:54.803Z,3.08
2017-11-10T23:37:21.843Z,3.67
2017-11-10T23:39:49.190Z,3.53
2017-11-10T23:42:15.460Z,4.87
2017-11-10T23:44:41.793Z,3.25
2017-11-10T23:47:08.071Z,3.33
2017-11-10T23:49:35.100Z,3.33
2017-11-10T23:52:02.416Z,3.95
2017-11-10T23:54:28.694Z,3.45
2017-11-10T23:56:54.951Z,3.58
2017-11-10T23:59:21.995Z,3.47
